Time;durP1;ratioP1;P1;durP2;ratioP2;P2;SDS_P1;SDS_P2;PMS_P1;PMS_P2;Temp;Humidity;BMP_temperature;BMP_pressure;BME280_temperature;BME280_humidity;BME280_pressure;Samples;Min_cycle;Max_cycle;Signal;HPM_P1;HPM_P2
2023/04/22 00:00:27;;;;;;;;;;;9.40;99.90;;;;;;5045942;28;19991;-64
2023/04/22 00:03:00;;;;;;;;;;;9.30;99.90;;;;;;5042660;28;20366;-64
2023/04/22 00:05:33;;;;;;;;;;;9.30;99.90;;;;;;5040167;28;19952;-64
2023/04/22 00:08:05;;;;;;;;;;;9.30;99.90;;;;;;5043135;28;19932;-64
2023/04/22 00:10:37;;;;;;;;;;;9.30;99.90;;;;;;5040814;28;19982;-64
2023/04/22 00:13:09;;;;;;;;;;;9.30;99.90;;;;;;5039588;28;20428;-64
2023/04/22 00:15:40;;;;;;;;;;;9.30;99.90;;;;;;5041240;28;19929;-64
2023/04/22 00:18:12;;;;;;;;;;;9.20;99.90;;;;;;5045174;28;19939;-64
2023/04/22 00:20:44;;;;;;;;;;;9.20;99.90;;;;;;5034152;28;19933;-64
2023/04/22 00:23:11;;;;;;;;;;;9.20;99.90;;;;;;5045377;28;19925;-64
2023/04/22 00:25:43;;;;;;;;;;;9.20;99.90;;;;;;5027014;28;20080;-64
2023/04/22 00:28:15;;;;;;;;;;;9.20;99.90;;;;;;5040159;28;19978;-64
2023/04/22 00:30:46;;;;;;;;;;;9.20;99.90;;;;;;5038395;28;19929;-64
2023/04/22 00:33:18;;;;;;;;;;;9.20;99.90;;;;;;5038263;28;19925;-64
2023/04/22 00:35:50;;;;;;;;;;;9.30;99.90;;;;;;5039781;28;19925;-64
2023/04/22 00:38:22;;;;;;;;;;;9.20;99.90;;;;;;5040414;28;20369;-64
2023/04/22 00:40:54;;;;;;;;;;;9.10;99.90;;;;;;5038245;28;20015;-64
2023/04/22 00:43:26;;;;;;;;;;;9.10;99.90;;;;;;5045987;28;19929;-64
2023/04/22 00:45:57;;;;;;;;;;;9.00;99.90;;;;;;5035585;28;19991;-64
2023/04/22 00:48:29;;;;;;;;;;;9.00;99.90;;;;;;5046459;28;19964;-64
2023/04/22 00:51:01;;;;;;;;;;;9.00;99.90;;;;;;5045013;28;19991;-64
2023/04/22 00:53:28;;;;;;;;;;;9.00;99.90;;;;;;5039687;28;20024;-64
2023/04/22 00:55:59;;;;;;;;;;;9.00;99.90;;;;;;5036930;28;19931;-64
2023/04/22 00:58:31;;;;;;;;;;;9.00;99.90;;;;;;5037317;28;20494;-64
2023/04/22 01:01:03;;;;;;;;;;;8.90;99.90;;;;;;5040983;28;19924;-64
2023/04/22 01:03:37;;;;;;;;;;;8.90;99.90;;;;;;5037445;28;19925;-64
2023/04/22 01:06:08;;;;;;;;;;;8.90;99.90;;;;;;5044789;28;20755;-64
2023/04/22 01:08:41;;;;;;;;;;;8.90;99.90;;;;;;5046495;28;19929;-63
2023/04/22 01:11:13;;;;;;;;;;;8.90;99.90;;;;;;5018704;28;19931;-64
2023/04/22 01:13:45;;;;;;;;;;;8.90;99.90;;;;;;5036943;28;19979;-64
2023/04/22 01:16:17;;;;;;;;;;;8.90;99.90;;;;;;5032159;28;19933;-64
2023/04/22 01:18:49;;;;;;;;;;;8.90;99.90;;;;;;5034878;28;19929;-64
2023/04/22 01:21:23;;;;;;;;;;;8.90;99.90;;;;;;5037670;28;19931;-64
2023/04/22 01:23:55;;;;;;;;;;;8.80;99.90;;;;;;5036238;28;20426;-64
2023/04/22 01:26:27;;;;;;;;;;;8.80;99.90;;;;;;5041030;28;19925;-64
2023/04/22 01:29:00;;;;;;;;;;;8.90;99.90;;;;;;5044780;28;19932;-64
2023/04/22 01:31:27;;;;;;;;;;;8.80;99.90;;;;;;5037462;28;19925;-64
2023/04/22 01:33:59;;;;;;;;;;;8.70;99.90;;;;;;5041783;28;19941;-64
2023/04/22 01:36:32;;;;;;;;;;;8.70;99.90;;;;;;5042538;28;20304;-64
2023/04/22 01:39:06;;;;;;;;;;;8.70;99.90;;;;;;5035153;28;19928;-64
2023/04/22 01:41:38;;;;;;;;;;;8.70;99.90;;;;;;5035905;28;19929;-64
2023/04/22 01:44:09;;;;;;;;;;;8.70;99.90;;;;;;5039319;28;19933;-64
2023/04/22 01:46:41;;;;;;;;;;;8.60;99.90;;;;;;5006406;28;19975;-64
2023/04/22 01:49:13;;;;;;;;;;;8.60;99.90;;;;;;5022304;28;19929;-64
2023/04/22 01:51:44;;;;;;;;;;;8.60;99.90;;;;;;5033438;28;19987;-64
2023/04/22 01:54:17;;;;;;;;;;;8.60;99.90;;;;;;5041470;28;19986;-64
2023/04/22 01:56:49;;;;;;;;;;;8.60;99.90;;;;;;5046461;28;19925;-64
2023/04/22 01:59:21;;;;;;;;;;;8.60;99.90;;;;;;5035692;28;19928;-64
2023/04/22 02:01:52;;;;;;;;;;;8.60;99.90;;;;;;5027097;28;20360;-64
2023/04/22 02:04:24;;;;;;;;;;;8.50;99.90;;;;;;5021174;28;19971;-64
2023/04/22 02:06:56;;;;;;;;;;;8.50;99.90;;;;;;5022065;28;19925;-64
2023/04/22 02:09:22;;;;;;;;;;;8.50;99.90;;;;;;5036789;28;19929;-64
2023/04/22 02:11:54;;;;;;;;;;;8.50;99.90;;;;;;5036988;28;19936;-64
2023/04/22 02:14:26;;;;;;;;;;;8.50;99.90;;;;;;5045369;28;20794;-64
2023/04/22 02:17:02;;;;;;;;;;;8.50;99.90;;;;;;5050467;28;19925;-64
2023/04/22 02:19:33;;;;;;;;;;;8.50;99.90;;;;;;5048007;28;19929;-64
2023/04/22 02:22:05;;;;;;;;;;;8.50;99.90;;;;;;5035286;28;19933;-64
2023/04/22 02:24:37;;;;;;;;;;;8.40;99.90;;;;;;5047602;28;20011;-64
2023/04/22 02:27:08;;;;;;;;;;;8.40;99.90;;;;;;5042107;28;19925;-64
2023/04/22 02:29:40;;;;;;;;;;;8.40;99.90;;;;;;5042160;28;19983;-64
2023/04/22 02:32:12;;;;;;;;;;;8.40;99.90;;;;;;5017301;28;19929;-64
2023/04/22 02:34:44;;;;;;;;;;;8.30;99.90;;;;;;5046717;28;20011;-64
2023/04/22 02:37:15;;;;;;;;;;;8.30;99.90;;;;;;5048033;28;19933;-64
2023/04/22 02:39:48;;;;;;;;;;;8.30;99.90;;;;;;5041322;28;19929;-64
2023/04/22 02:42:19;;;;;;;;;;;8.30;99.90;;;;;;5049185;28;19932;-64
2023/04/22 02:44:51;;;;;;;;;;;8.30;99.90;;;;;;5035165;28;19933;-64
2023/04/22 02:47:23;;;;;;;;;;;8.30;99.90;;;;;;5036922;28;19932;-64
2023/04/22 02:49:55;;;;;;;;;;;8.30;99.90;;;;;;5039587;28;20385;-63
2023/04/22 02:52:27;;;;;;;;;;;8.30;99.90;;;;;;5038626;28;19933;-64
2023/04/22 02:54:59;;;;;;;;;;;8.30;99.90;;;;;;5040470;28;19928;-64
2023/04/22 02:57:31;;;;;;;;;;;8.30;99.90;;;;;;5045270;28;19924;-64
2023/04/22 03:00:03;;;;;;;;;;;8.20;99.90;;;;;;5032112;28;19929;-64
2023/04/22 03:02:35;;;;;;;;;;;8.20;99.90;;;;;;5027309;28;20059;-64
2023/04/22 03:05:14;;;;;;;;;;;8.20;99.90;;;;;;5036088;28;19971;-64
2023/04/22 03:07:46;;;;;;;;;;;8.20;99.90;;;;;;5033024;28;20293;-64
2023/04/22 03:10:18;;;;;;;;;;;8.20;99.90;;;;;;5041791;28;19929;-64
2023/04/22 03:12:50;;;;;;;;;;;8.10;99.90;;;;;;5039560;28;19947;-64
2023/04/22 03:15:18;;;;;;;;;;;8.10;99.90;;;;;;5041121;28;19929;-64
2023/04/22 03:17:50;;;;;;;;;;;8.10;99.90;;;;;;5040983;28;20535;-64
2023/04/22 03:20:22;;;;;;;;;;;8.10;99.90;;;;;;5041502;28;20426;-64
2023/04/22 03:22:54;;;;;;;;;;;8.10;99.90;;;;;;5043113;28;19929;-64
2023/04/22 03:25:26;;;;;;;;;;;8.10;99.90;;;;;;5049925;28;19929;-64
2023/04/22 03:27:58;;;;;;;;;;;8.00;99.90;;;;;;5026176;28;19929;-64
2023/04/22 03:30:30;;;;;;;;;;;8.00;99.90;;;;;;5034998;28;20336;-64
2023/04/22 03:33:02;;;;;;;;;;;8.00;99.90;;;;;;5042224;28;19964;-64
2023/04/22 03:35:41;;;;;;;;;;;8.00;99.90;;;;;;5021481;28;20386;-64
2023/04/22 03:38:13;;;;;;;;;;;8.00;99.90;;;;;;5037125;28;19925;-63
2023/04/22 03:40:47;;;;;;;;;;;7.90;99.90;;;;;;5038522;28;19936;-64
2023/04/22 03:43:34;;;;;;;;;;;7.90;99.90;;;;;;5033690;28;19932;-64
2023/04/22 03:46:05;;;;;;;;;;;7.80;99.90;;;;;;5034345;28;19935;-64
2023/04/22 03:48:45;;;;;;;;;;;7.80;99.90;;;;;;5029430;28;19936;-64
2023/04/22 03:51:27;;;;;;;;;;;7.80;99.90;;;;;;5039734;28;20393;-64
2023/04/22 03:54:03;;;;;;;;;;;7.80;99.90;;;;;;5041639;28;19929;-64
2023/04/22 03:56:39;;;;;;;;;;;7.80;99.90;;;;;;5041729;28;19995;-64
2023/04/22 03:59:11;;;;;;;;;;;7.70;99.90;;;;;;5052270;28;19967;-64
2023/04/22 04:01:46;;;;;;;;;;;7.80;99.90;;;;;;5029887;28;19925;-64
2023/04/22 04:04:17;;;;;;;;;;;7.70;99.90;;;;;;5029926;28;19971;-64
2023/04/22 04:06:53;;;;;;;;;;;7.80;99.90;;;;;;5034496;28;19936;-64
2023/04/22 04:09:20;;;;;;;;;;;7.80;99.90;;;;;;5035934;28;19929;-64
2023/04/22 04:11:52;;;;;;;;;;;7.80;99.90;;;;;;5033563;28;20027;-64
2023/04/22 04:14:28;;;;;;;;;;;7.70;99.90;;;;;;5041322;28;19924;-64
2023/04/22 04:17:02;;;;;;;;;;;7.60;99.90;;;;;;5037735;28;20412;-64
2023/04/22 04:19:35;;;;;;;;;;;7.60;99.90;;;;;;5038759;28;20393;-64
2023/04/22 04:22:07;;;;;;;;;;;7.50;99.90;;;;;;5039423;28;19929;-64
2023/04/22 04:24:48;;;;;;;;;;;7.50;99.90;;;;;;5036512;28;19935;-64
2023/04/22 04:27:20;;;;;;;;;;;7.50;99.90;;;;;;5032073;28;19960;-63
2023/04/22 04:29:54;;;;;;;;;;;7.40;99.90;;;;;;5033748;28;19935;-63
2023/04/22 04:32:33;;;;;;;;;;;7.50;99.90;;;;;;5034365;28;19925;-64
2023/04/22 04:35:07;;;;;;;;;;;7.50;99.90;;;;;;5038964;28;19925;-64
2023/04/22 04:37:35;;;;;;;;;;;7.50;99.90;;;;;;5039569;28;19929;-64
2023/04/22 04:40:11;;;;;;;;;;;7.50;99.90;;;;;;5033718;28;19931;-64
2023/04/22 04:42:57;;;;;;;;;;;7.60;99.90;;;;;;5025419;28;20015;-64
2023/04/22 04:45:35;;;;;;;;;;;7.60;99.90;;;;;;5041776;28;19975;-63
2023/04/22 04:48:07;;;;;;;;;;;7.70;99.90;;;;;;5038100;28;20448;-64
2023/04/22 04:50:46;;;;;;;;;;;7.80;99.90;;;;;;5038290;28;20030;-64
2023/04/22 04:53:12;;;;;;;;;;;7.80;99.90;;;;;;5034950;28;20312;-64
2023/04/22 04:55:44;;;;;;;;;;;7.80;99.90;;;;;;5038741;28;20024;-64
2023/04/22 04:58:20;;;;;;;;;;;7.80;99.90;;;;;;5037411;28;19986;-64
2023/04/22 05:01:07;;;;;;;;;;;7.80;99.90;;;;;;5042838;28;20309;-63
2023/04/22 05:03:40;;;;;;;;;;;7.80;99.90;;;;;;5050550;28;19928;-64
2023/04/22 05:06:14;;;;;;;;;;;7.90;99.90;;;;;;5038163;28;20377;-64
2023/04/22 05:08:51;;;;;;;;;;;7.80;99.90;;;;;;5063420;28;19934;-64
2023/04/22 05:11:23;;;;;;;;;;;7.80;99.90;;;;;;5065979;28;20308;-64
2023/04/22 05:13:51;;;;;;;;;;;7.80;99.90;;;;;;5067589;28;19928;-64
2023/04/22 05:16:24;;;;;;;;;;;7.80;99.90;;;;;;5065269;28;19928;-64
2023/04/22 05:18:57;;;;;;;;;;;7.90;99.90;;;;;;5066856;28;19928;-64
2023/04/22 05:21:24;;;;;;;;;;;8.00;99.90;;;;;;5079584;28;20375;-64
2023/04/22 05:23:56;;;;;;;;;;;8.00;99.90;;;;;;5066606;28;20293;-64
2023/04/22 05:26:28;;;;;;;;;;;8.10;99.90;;;;;;5062546;28;20313;-64
2023/04/22 05:28:55;;;;;;;;;;;8.10;99.90;;;;;;5063533;28;19934;-64
2023/04/22 05:31:27;;;;;;;;;;;8.20;99.90;;;;;;5065003;28;20043;-64
2023/04/22 05:33:59;;;;;;;;;;;8.30;99.90;;;;;;5063777;28;20392;-64
2023/04/22 05:36:31;;;;;;;;;;;8.40;99.90;;;;;;5066605;28;20368;-64
2023/04/22 05:39:03;;;;;;;;;;;8.40;99.90;;;;;;5067543;28;19970;-63
2023/04/22 05:41:34;;;;;;;;;;;8.50;99.90;;;;;;5064780;28;19924;-64
2023/04/22 05:44:09;;;;;;;;;;;8.60;99.90;;;;;;5048732;28;19935;-64
2023/04/22 05:46:41;;;;;;;;;;;8.60;99.90;;;;;;5062158;28;19930;-64
2023/04/22 05:49:14;;;;;;;;;;;8.60;99.90;;;;;;5043398;28;19931;-64
2023/04/22 05:51:57;;;;;;;;;;;8.70;99.90;;;;;;5076218;28;20463;-64
2023/04/22 05:54:39;;;;;;;;;;;8.70;99.90;;;;;;5064011;28;19932;-64
2023/04/22 05:57:11;;;;;;;;;;;8.80;99.90;;;;;;5045254;28;19937;-64
2023/04/22 05:59:43;;;;;;;;;;;8.80;99.90;;;;;;5061598;28;20447;-64
2023/04/22 06:02:09;;;;;;;;;;;8.80;99.90;;;;;;5057252;28;19931;-64
2023/04/22 06:04:41;;;;;;;;;;;8.90;99.90;;;;;;5082171;28;19951;-64
2023/04/22 06:07:13;;;;;;;;;;;8.90;99.90;;;;;;5052696;28;19932;-64
2023/04/22 06:09:45;;;;;;;;;;;8.90;99.90;;;;;;5071277;28;19932;-64
2023/04/22 06:12:17;;;;;;;;;;;9.00;99.90;;;;;;5078462;28;19924;-64
2023/04/22 06:14:49;;;;;;;;;;;9.00;99.90;;;;;;5064798;28;20441;-64
2023/04/22 06:17:20;;;;;;;;;;;9.00;99.90;;;;;;5062632;28;19929;-64
2023/04/22 06:19:52;;;;;;;;;;;9.00;99.90;;;;;;5061250;28;19924;-64
2023/04/22 06:22:24;;;;;;;;;;;9.00;99.90;;;;;;5058328;28;20539;-63
2023/04/22 06:24:56;;;;;;;;;;;9.10;99.90;;;;;;5064676;28;19993;-65
2023/04/22 06:27:23;;;;;;;;;;;9.10;99.90;;;;;;5064938;28;19939;-63
2023/04/22 06:29:55;;;;;;;;;;;9.20;99.90;;;;;;5058700;28;19924;-63
2023/04/22 06:32:28;;;;;;;;;;;9.20;99.90;;;;;;5057138;28;19929;-63
2023/04/22 06:34:55;;;;;;;;;;;9.30;99.90;;;;;;5060753;28;19924;-64
2023/04/22 06:37:27;;;;;;;;;;;9.30;99.90;;;;;;5066696;28;19931;-63
2023/04/22 06:39:59;;;;;;;;;;;9.40;99.90;;;;;;5063836;28;19936;-63
2023/04/22 06:42:40;;;;;;;;;;;9.40;99.90;;;;;;5082785;28;19928;-64
2023/04/22 06:45:43;;;;;;;;;;;9.50;99.90;;;;;;5066914;28;20050;-63
2023/04/22 06:48:22;;;;;;;;;;;9.70;99.90;;;;;;5059623;28;20396;-63
2023/04/22 06:51:25;;;;;;;;;;;9.80;99.90;;;;;;5041067;28;19925;-64
2023/04/22 06:53:58;;;;;;;;;;;9.90;99.90;;;;;;5061702;28;19924;-64
2023/04/22 06:56:30;;;;;;;;;;;10.10;99.90;;;;;;5063189;28;20379;-64
2023/04/22 06:59:01;;;;;;;;;;;10.20;99.90;;;;;;5062870;28;19928;-64
2023/04/22 07:01:34;;;;;;;;;;;10.30;99.90;;;;;;5060823;28;19940;-64
2023/04/22 07:04:00;;;;;;;;;;;10.30;99.90;;;;;;5065433;28;20006;-64
2023/04/22 07:06:27;;;;;;;;;;;10.50;99.90;;;;;;5062542;28;19928;-63
2023/04/22 07:08:59;;;;;;;;;;;10.60;99.90;;;;;;5065654;28;19931;-64
2023/04/22 07:11:31;;;;;;;;;;;10.70;99.90;;;;;;5065711;28;19925;-64
2023/04/22 07:14:14;;;;;;;;;;;10.80;99.90;;;;;;5082766;28;19932;-64
2023/04/22 07:16:46;;;;;;;;;;;10.90;99.90;;;;;;5065315;28;20498;-64
2023/04/22 07:19:17;;;;;;;;;;;11.00;99.90;;;;;;5076169;28;19978;-64
2023/04/22 07:21:49;;;;;;;;;;;11.10;99.90;;;;;;5080928;28;19924;-63
2023/04/22 07:24:22;;;;;;;;;;;11.20;99.90;;;;;;5081569;28;20018;-63
2023/04/22 07:26:54;;;;;;;;;;;11.30;99.90;;;;;;5082513;28;19931;-63
2023/04/22 07:29:25;;;;;;;;;;;11.50;99.90;;;;;;5082238;28;19968;-64
2023/04/22 07:31:57;;;;;;;;;;;11.60;99.90;;;;;;5067683;28;19969;-64
2023/04/22 07:34:29;;;;;;;;;;;11.70;99.90;;;;;;5065227;28;19931;-64
2023/04/22 07:37:00;;;;;;;;;;;11.90;99.90;;;;;;5064018;28;19928;-64
2023/04/22 07:39:32;;;;;;;;;;;12.00;99.90;;;;;;5061787;28;20308;-64
2023/04/22 07:42:04;;;;;;;;;;;12.20;99.90;;;;;;5068714;28;19924;-64
2023/04/22 07:44:31;;;;;;;;;;;12.30;99.90;;;;;;5066637;28;19931;-64
2023/04/22 07:47:02;;;;;;;;;;;12.40;99.90;;;;;;5064132;28;19982;-64
2023/04/22 07:49:34;;;;;;;;;;;12.50;99.90;;;;;;5084631;28;19924;-64
2023/04/22 07:52:01;;;;;;;;;;;12.70;99.90;;;;;;5083615;28;19935;-64
2023/04/22 07:54:33;;;;;;;;;;;12.80;99.90;;;;;;5065467;28;19931;-64
2023/04/22 07:57:04;;;;;;;;;;;13.00;99.90;;;;;;5085330;28;19928;-64
2023/04/22 07:59:36;;;;;;;;;;;13.10;99.90;;;;;;5083355;28;19978;-64
2023/04/22 08:02:03;;;;;;;;;;;13.30;99.90;;;;;;5066120;28;20296;-64
2023/04/22 08:04:35;;;;;;;;;;;13.40;99.90;;;;;;5061405;28;19931;-64
2023/04/22 08:07:07;;;;;;;;;;;13.50;99.90;;;;;;5055470;28;20672;-64
2023/04/22 08:09:39;;;;;;;;;;;13.60;99.90;;;;;;5077420;28;19925;-64
2023/04/22 08:12:10;;;;;;;;;;;13.80;99.90;;;;;;5077689;28;19970;-64
2023/04/22 08:14:42;;;;;;;;;;;13.90;99.90;;;;;;5080217;28;19979;-64
2023/04/22 08:17:13;;;;;;;;;;;14.00;99.90;;;;;;5086552;28;19964;-64
2023/04/22 08:19:40;;;;;;;;;;;14.20;99.90;;;;;;5066179;28;19924;-64
2023/04/22 08:22:12;;;;;;;;;;;14.30;99.90;;;;;;5082502;28;19970;-64
2023/04/22 08:24:44;;;;;;;;;;;14.40;99.90;;;;;;5076500;28;19998;-64
2023/04/22 08:27:16;;;;;;;;;;;14.50;99.90;;;;;;5060188;28;20402;-64
2023/04/22 08:29:47;;;;;;;;;;;14.70;99.90;;;;;;5085013;28;19928;-64
2023/04/22 08:32:19;;;;;;;;;;;14.80;99.90;;;;;;5061457;28;19924;-64
2023/04/22 08:34:51;;;;;;;;;;;14.90;99.90;;;;;;5062703;28;19928;-64
2023/04/22 08:37:23;;;;;;;;;;;15.00;99.90;;;;;;5082546;28;19932;-64
2023/04/22 08:39:55;;;;;;;;;;;15.20;99.90;;;;;;5039210;28;19931;-64
2023/04/22 08:42:22;;;;;;;;;;;15.30;99.90;;;;;;5065828;28;19925;-64
2023/04/22 08:44:53;;;;;;;;;;;15.40;99.90;;;;;;5080890;28;20346;-64
2023/04/22 08:47:26;;;;;;;;;;;15.50;99.90;;;;;;5083077;28;19925;-64
2023/04/22 08:50:00;;;;;;;;;;;15.50;99.90;;;;;;5077240;28;19991;-64
2023/04/22 08:52:32;;;;;;;;;;;15.60;99.90;;;;;;5081372;28;19933;-64
2023/04/22 08:54:59;;;;;;;;;;;15.70;99.90;;;;;;5065581;28;19924;-64
2023/04/22 08:57:31;;;;;;;;;;;15.80;99.90;;;;;;5063206;28;19929;-64
2023/04/22 08:59:58;;;;;;;;;;;15.90;99.90;;;;;;5087710;28;19931;-64
2023/04/22 09:02:31;;;;;;;;;;;16.00;99.90;;;;;;5067378;28;19928;-64
2023/04/22 09:05:04;;;;;;;;;;;16.20;99.90;;;;;;5085218;28;20330;-64
2023/04/22 09:07:37;;;;;;;;;;;16.30;99.90;;;;;;5082883;28;20060;-64
2023/04/22 09:10:10;;;;;;;;;;;16.50;99.90;;;;;;5067690;28;20468;-64
2023/04/22 09:12:42;;;;;;;;;;;16.60;99.90;;;;;;5073966;28;19933;-64
2023/04/22 09:15:15;;;;;;;;;;;16.80;99.90;;;;;;5075011;28;19925;-64
2023/04/22 09:17:49;;;;;;;;;;;17.00;99.90;;;;;;5082050;28;19951;-64
2023/04/22 09:20:17;;;;;;;;;;;17.20;99.90;;;;;;5077547;28;19978;-64
2023/04/22 09:22:49;;;;;;;;;;;17.30;99.90;;;;;;5086862;28;19973;-64
2023/04/22 09:25:22;;;;;;;;;;;17.40;99.90;;;;;;5084679;28;19924;-64
2023/04/22 09:27:56;;;;;;;;;;;17.50;99.90;;;;;;5082750;28;19973;-64
2023/04/22 09:30:27;;;;;;;;;;;17.50;99.90;;;;;;5063201;28;19939;-64
2023/04/22 09:33:00;;;;;;;;;;;17.50;99.90;;;;;;5047374;28;19927;-64
2023/04/22 09:35:31;;;;;;;;;;;17.50;99.90;;;;;;5075148;28;19933;-64
2023/04/22 09:38:05;;;;;;;;;;;17.60;99.90;;;;;;5077017;28;20427;-64
2023/04/22 09:40:39;;;;;;;;;;;17.70;99.90;;;;;;5075577;28;19925;-64
2023/04/22 09:43:11;;;;;;;;;;;17.70;99.90;;;;;;5079842;28;19928;-64
2023/04/22 09:45:44;;;;;;;;;;;17.80;99.90;;;;;;5084468;28;19931;-64
2023/04/22 09:48:19;;;;;;;;;;;17.80;99.90;;;;;;5081455;28;20385;-64
2023/04/22 09:50:50;;;;;;;;;;;17.80;99.90;;;;;;5079393;28;19929;-64
2023/04/22 09:53:22;;;;;;;;;;;17.90;99.90;;;;;;5061378;28;19924;-64
2023/04/22 09:55:54;;;;;;;;;;;18.00;99.90;;;;;;5077288;28;20392;-64
2023/04/22 09:58:26;;;;;;;;;;;18.10;99.90;;;;;;5075078;28;20289;-64
2023/04/22 10:00:58;;;;;;;;;;;18.20;99.90;;;;;;5073958;28;19928;-64
2023/04/22 10:03:30;;;;;;;;;;;18.30;99.90;;;;;;5077310;28;19924;-64
2023/04/22 10:06:02;;;;;;;;;;;18.50;99.90;;;;;;5087206;28;20449;-64
2023/04/22 10:08:34;;;;;;;;;;;18.50;99.90;;;;;;5085184;28;19932;-64
2023/04/22 10:11:05;;;;;;;;;;;18.60;99.90;;;;;;5064744;28;19948;-64
2023/04/22 10:13:37;;;;;;;;;;;18.60;99.90;;;;;;5079363;28;19924;-64
2023/04/22 10:16:04;;;;;;;;;;;18.60;99.90;;;;;;5079947;28;20370;-63
2023/04/22 10:18:38;;;;;;;;;;;18.60;99.90;;;;;;5059041;28;19932;-65
2023/04/22 10:21:10;;;;;;;;;;;18.60;99.90;;;;;;5074090;28;20278;-64
2023/04/22 10:23:45;;;;;;;;;;;18.60;99.90;;;;;;5060216;28;19977;-64
2023/04/22 10:26:36;;;;;;;;;;;18.60;99.90;;;;;;5050920;28;20312;-64
2023/04/22 10:29:11;;;;;;;;;;;18.60;99.90;;;;;;5076870;28;19932;-64
2023/04/22 10:31:45;;;;;;;;;;;18.60;99.90;;;;;;5082273;28;20385;-64
2023/04/22 10:34:16;;;;;;;;;;;18.60;99.90;;;;;;5065210;28;19928;-64
2023/04/22 10:36:59;;;;;;;;;;;18.60;99.90;;;;;;5084593;28;19954;-64
2023/04/22 10:39:31;;;;;;;;;;;18.60;99.90;;;;;;5064490;28;20392;-64
2023/04/22 10:42:04;;;;;;;;;;;18.60;99.90;;;;;;5081813;28;19978;-64
2023/04/22 10:44:52;;;;;;;;;;;18.70;99.90;;;;;;5079014;28;19931;-64
2023/04/22 10:47:27;;;;;;;;;;;18.80;99.90;;;;;;5075945;28;19924;-64
2023/04/22 10:50:16;;;;;;;;;;;18.90;99.90;;;;;;5087902;28;19928;-64
2023/04/22 10:53:20;;;;;;;;;;;19.00;99.90;;;;;;5071843;28;19928;-64
2023/04/22 10:55:52;;;;;;;;;;;19.10;99.90;;;;;;5087196;28;19954;-64
2023/04/22 10:58:24;;;;;;;;;;;19.20;99.90;;;;;;5065851;28;19928;-64
2023/04/22 11:01:01;;;;;;;;;;;19.30;99.90;;;;;;5067556;28;19977;-64
2023/04/22 11:03:33;;;;;;;;;;;19.30;99.90;;;;;;5080257;28;19932;-64
2023/04/22 11:06:12;;;;;;;;;;;19.40;99.90;;;;;;5067596;28;19924;-64
2023/04/22 11:08:42;;;;;;;;;;;19.40;99.90;;;;;;5083326;28;20415;-64
2023/04/22 11:11:09;;;;;;;;;;;19.50;99.90;;;;;;5075249;28;19932;-64
2023/04/22 11:13:46;;;;;;;;;;;19.50;99.90;;;;;;5090630;28;19928;-64
2023/04/22 11:16:20;;;;;;;;;;;19.60;99.90;;;;;;5084588;28;19928;-64
2023/04/22 11:18:52;;;;;;;;;;;19.60;99.90;;;;;;5083535;28;19969;-64
2023/04/22 11:21:23;;;;;;;;;;;19.70;99.90;;;;;;5082590;28;19977;-64
2023/04/22 11:23:53;;;;;;;;;;;19.80;99.90;;;;;;5083423;28;19931;-64
2023/04/22 11:26:32;;;;;;;;;;;19.90;99.90;;;;;;5083156;28;19925;-64
2023/04/22 11:29:04;;;;;;;;;;;20.00;99.90;;;;;;5059538;28;19986;-64
2023/04/22 11:31:36;;;;;;;;;;;20.00;99.90;;;;;;5079194;28;19924;-64
2023/04/22 11:34:11;;;;;;;;;;;20.00;99.90;;;;;;5082977;28;20122;-64
2023/04/22 11:36:46;;;;;;;;;;;20.00;99.90;;;;;;5086206;28;20381;-65
2023/04/22 11:39:15;;;;;;;;;;;20.00;99.90;;;;;;5083874;28;19928;-64
2023/04/22 11:41:42;;;;;;;;;;;20.00;99.90;;;;;;5060407;28;20449;-64
2023/04/22 11:44:13;;;;;;;;;;;20.00;99.90;;;;;;5069042;28;19973;-64
2023/04/22 11:46:45;;;;;;;;;;;20.10;99.90;;;;;;5081852;28;19973;-69
2023/04/22 11:49:17;;;;;;;;;;;20.20;99.90;;;;;;5054018;28;19928;-64
2023/04/22 11:51:55;;;;;;;;;;;20.30;99.90;;;;;;5086436;28;20339;-63
2023/04/22 11:54:32;;;;;;;;;;;20.40;99.90;;;;;;5078629;28;19932;-64
2023/04/22 11:57:07;;;;;;;;;;;20.60;99.90;;;;;;5084261;28;19924;-64
2023/04/22 11:59:39;;;;;;;;;;;20.70;99.90;;;;;;5086958;28;20438;-64
2023/04/22 12:02:11;;;;;;;;;;;20.90;99.90;;;;;;5054603;28;20362;-64
2023/04/22 12:04:42;;;;;;;;;;;21.00;99.90;;;;;;5084817;28;19932;-64
2023/04/22 12:07:14;;;;;;;;;;;21.10;99.90;;;;;;5064945;28;19977;-64
2023/04/22 12:09:46;;;;;;;;;;;21.10;99.90;;;;;;5086335;28;19932;-64
2023/04/22 12:12:13;;;;;;;;;;;21.10;99.90;;;;;;5069785;28;20293;-64
2023/04/22 12:14:45;;;;;;;;;;;21.10;99.90;;;;;;5081881;28;20483;-64
2023/04/22 12:17:13;;;;;;;;;;;21.20;99.90;;;;;;5066168;28;20395;-64
2023/04/22 12:19:52;;;;;;;;;;;21.20;99.90;;;;;;5067949;28;19925;-64
2023/04/22 12:22:27;;;;;;;;;;;21.30;99.90;;;;;;5060216;28;19951;-64
2023/04/22 12:24:59;;;;;;;;;;;21.30;99.90;;;;;;5079884;28;19982;-64
2023/04/22 12:27:31;;;;;;;;;;;21.50;99.90;;;;;;5082753;28;19928;-64
2023/04/22 12:29:58;;;;;;;;;;;21.60;99.90;;;;;;5065606;28;19928;-64
2023/04/22 12:32:30;;;;;;;;;;;21.70;99.90;;;;;;5086539;28;19931;-64
2023/04/22 12:35:03;;;;;;;;;;;21.70;99.90;;;;;;5070145;28;19924;-64
2023/04/22 12:37:35;;;;;;;;;;;21.80;99.50;;;;;;5085920;28;19934;-65
2023/04/22 12:40:03;;;;;;;;;;;21.80;99.90;;;;;;5069142;28;19931;-64
2023/04/22 12:42:35;;;;;;;;;;;21.90;99.90;;;;;;5059466;28;20414;-64
2023/04/22 12:45:07;;;;;;;;;;;21.90;99.10;;;;;;5061449;28;19981;-64
2023/04/22 12:47:39;;;;;;;;;;;22.00;98.90;;;;;;5078284;28;19935;-65
2023/04/22 12:50:11;;;;;;;;;;;21.90;98.30;;;;;;5077555;28;20316;-64
2023/04/22 12:52:38;;;;;;;;;;;21.90;98.30;;;;;;5082260;28;20384;-64
2023/04/22 12:55:10;;;;;;;;;;;22.00;97.50;;;;;;5086060;28;19932;-65
2023/04/22 12:57:37;;;;;;;;;;;22.00;96.00;;;;;;5066109;28;19928;-64
2023/04/22 13:00:13;;;;;;;;;;;22.10;93.40;;;;;;5057474;28;19931;-64
2023/04/22 13:02:45;;;;;;;;;;;22.20;92.80;;;;;;5074747;28;19933;-65
2023/04/22 13:05:18;;;;;;;;;;;22.40;93.30;;;;;;5061060;28;19933;-64
2023/04/22 13:07:49;;;;;;;;;;;22.60;93.40;;;;;;5084817;28;19924;-65
2023/04/22 13:10:21;;;;;;;;;;;22.60;88.40;;;;;;5067031;28;20011;-64
2023/04/22 13:12:53;;;;;;;;;;;22.70;88.20;;;;;;5064323;28;20351;-64
2023/04/22 13:15:25;;;;;;;;;;;22.80;90.00;;;;;;5083594;28;19973;-64
2023/04/22 13:17:57;;;;;;;;;;;22.90;83.40;;;;;;5067298;28;19935;-64
2023/04/22 13:20:29;;;;;;;;;;;23.00;79.10;;;;;;5066652;28;19935;-64
2023/04/22 13:23:01;;;;;;;;;;;23.10;80.50;;;;;;5067030;28;19928;-64
2023/04/22 13:25:27;;;;;;;;;;;23.20;76.70;;;;;;5087381;28;19924;-64
2023/04/22 13:27:59;;;;;;;;;;;23.30;78.80;;;;;;5079497;28;19978;-65
2023/04/22 13:30:31;;;;;;;;;;;23.30;79.90;;;;;;5078779;28;19924;-65
2023/04/22 13:33:03;;;;;;;;;;;23.20;80.80;;;;;;5083562;28;19970;-64
2023/04/22 13:35:35;;;;;;;;;;;22.90;75.20;;;;;;5076852;28;19978;-64
2023/04/22 13:38:07;;;;;;;;;;;22.90;72.70;;;;;;5082270;28;19932;-64
2023/04/22 13:40:33;;;;;;;;;;;22.80;72.70;;;;;;5083469;28;19924;-64
2023/04/22 13:43:07;;;;;;;;;;;22.90;72.10;;;;;;5067958;28;19928;-64
2023/04/22 13:45:39;;;;;;;;;;;22.90;68.30;;;;;;5086467;28;19932;-65
2023/04/22 13:48:11;;;;;;;;;;;22.90;70.80;;;;;;5059705;28;19977;-64
2023/04/22 13:50:43;;;;;;;;;;;22.90;70.20;;;;;;5070917;28;19931;-64
2023/04/22 13:53:10;;;;;;;;;;;22.80;69.70;;;;;;5076205;28;19925;-64
2023/04/22 13:55:42;;;;;;;;;;;22.60;65.90;;;;;;5078810;28;20347;-64
2023/04/22 13:58:09;;;;;;;;;;;22.60;69.00;;;;;;5082105;28;19924;-64
2023/04/22 14:00:41;;;;;;;;;;;22.40;66.70;;;;;;5079981;28;20308;-64
2023/04/22 14:03:13;;;;;;;;;;;22.40;66.80;;;;;;5066248;28;19924;-64
2023/04/22 14:05:40;;;;;;;;;;;22.60;68.70;;;;;;5063984;28;19928;-65
2023/04/22 14:08:12;;;;;;;;;;;22.70;67.90;;;;;;5066042;28;20358;-64
2023/04/22 14:10:38;;;;;;;;;;;23.00;68.80;;;;;;5065756;28;19925;-64
2023/04/22 14:13:10;;;;;;;;;;;23.20;67.00;;;;;;5071068;28;20303;-64
2023/04/22 14:15:37;;;;;;;;;;;23.30;64.80;;;;;;5082876;28;19932;-65
2023/04/22 14:18:09;;;;;;;;;;;23.50;62.90;;;;;;5088282;28;20274;-64
2023/04/22 14:20:43;;;;;;;;;;;23.70;65.70;;;;;;5084314;28;20331;-65
2023/04/22 14:23:16;;;;;;;;;;;23.80;64.20;;;;;;5084585;28;19934;-64
2023/04/22 14:25:47;;;;;;;;;;;23.90;63.90;;;;;;5088697;28;19924;-64
2023/04/22 14:28:19;;;;;;;;;;;23.70;64.80;;;;;;5067442;28;20361;-64
2023/04/22 14:30:51;;;;;;;;;;;23.60;66.40;;;;;;5068943;28;19931;-64
2023/04/22 14:33:23;;;;;;;;;;;23.40;67.30;;;;;;5085774;28;20410;-64
2023/04/22 14:35:56;;;;;;;;;;;23.60;66.90;;;;;;5084827;28;19935;-65
2023/04/22 14:38:28;;;;;;;;;;;23.70;67.50;;;;;;5062051;28;19985;-65
2023/04/22 14:41:00;;;;;;;;;;;23.60;62.80;;;;;;5085392;28;19969;-64
2023/04/22 14:43:32;;;;;;;;;;;23.50;59.40;;;;;;5082918;28;20046;-64
2023/04/22 14:46:04;;;;;;;;;;;23.70;62.40;;;;;;5087325;28;19977;-65
2023/04/22 14:48:34;;;;;;;;;;;23.70;59.40;;;;;;5069249;28;19924;-65
2023/04/22 14:51:05;;;;;;;;;;;23.50;61.90;;;;;;5085780;28;19924;-64
2023/04/22 14:53:37;;;;;;;;;;;23.10;64.80;;;;;;5086585;28;19986;-65